Time;durP1;ratioP1;P1;durP2;ratioP2;P2;SDS_P1;SDS_P2;PMS_P1;PMS_P2;Temp;Humidity;BMP_temperature;BMP_pressure;BME280_temperature;BME280_humidity;BME280_pressure;Samples;Min_cycle;Max_cycle;Signal;HPM_P1;HPM_P2
2021/03/09 00:00:34;;;;;;;0.20;0.20;;;;;;;;;;5053366;28;20510;-68
2021/03/09 00:03:00;;;;;;;0.20;0.20;;;;;;;;;;5051524;28;20242;-67
2021/03/09 00:05:26;;;;;;;0.20;0.20;;;;;;;;;;5055746;28;20522;-67
2021/03/09 00:07:53;;;;;;;0.20;0.20;;;;;;;;;;5056959;28;20233;-68
2021/03/09 00:10:19;;;;;;;0.30;0.30;;;;;;;;;;5060166;28;20199;-67
2021/03/09 00:12:45;;;;;;;0.20;0.20;;;;;;;;;;5056436;28;20196;-67
2021/03/09 00:15:13;;;;;;;0.20;0.20;;;;;;;;;;5056842;28;20206;-67
2021/03/09 00:17:39;;;;;;;0.20;0.20;;;;;;;;;;5052669;28;20207;-68
2021/03/09 00:20:06;;;;;;;0.20;0.20;;;;;;;;;;5056644;28;20199;-68
2021/03/09 00:22:32;;;;;;;0.20;0.20;;;;;;;;;;5078361;28;20195;-67
2021/03/09 00:24:59;;;;;;;0.20;0.20;;;;;;;;;;5053121;28;20199;-66
2021/03/09 00:27:25;;;;;;;0.30;0.30;;;;;;;;;;5056034;28;20237;-67
2021/03/09 00:29:51;;;;;;;0.20;0.20;;;;;;;;;;5058636;28;20196;-66
2021/03/09 00:32:19;;;;;;;0.20;0.20;;;;;;;;;;5059000;28;20227;-67
2021/03/09 00:34:45;;;;;;;0.20;0.20;;;;;;;;;;5059883;28;20199;-66
2021/03/09 00:37:11;;;;;;;0.20;0.20;;;;;;;;;;5081656;28;20230;-68
2021/03/09 00:39:37;;;;;;;0.27;0.27;;;;;;;;;;5060981;28;20390;-68
2021/03/09 00:42:04;;;;;;;0.20;0.20;;;;;;;;;;5058970;28;20199;-67
2021/03/09 00:44:30;;;;;;;0.20;0.20;;;;;;;;;;5053426;28;20245;-67
2021/03/09 00:46:56;;;;;;;0.20;0.20;;;;;;;;;;5057448;28;20241;-67
2021/03/09 00:49:23;;;;;;;0.23;0.23;;;;;;;;;;5060969;28;20311;-66
2021/03/09 00:51:51;;;;;;;0.20;0.20;;;;;;;;;;5054232;28;20223;-67
2021/03/09 00:54:17;;;;;;;0.30;0.30;;;;;;;;;;5062929;28;20499;-67
2021/03/09 00:56:43;;;;;;;0.20;0.20;;;;;;;;;;5075575;28;20206;-68
2021/03/09 00:59:09;;;;;;;0.20;0.20;;;;;;;;;;5060466;28;20203;-67
2021/03/09 01:01:36;;;;;;;0.20;0.20;;;;;;;;;;5060286;28;20195;-69
2021/03/09 01:04:02;;;;;;;0.20;0.20;;;;;;;;;;5061552;28;20261;-67
2021/03/09 01:06:29;;;;;;;0.20;0.20;;;;;;;;;;5076695;28;20234;-67
2021/03/09 01:08:55;;;;;;;0.20;0.20;;;;;;;;;;5078196;28;20203;-67
2021/03/09 01:11:21;;;;;;;0.20;0.20;;;;;;;;;;5064501;28;20499;-68
2021/03/09 01:13:48;;;;;;;0.20;0.20;;;;;;;;;;5058496;28;20196;-68
2021/03/09 01:16:14;;;;;;;0.30;0.30;;;;;;;;;;5055668;28;20195;-67
2021/03/09 01:18:40;;;;;;;0.20;0.20;;;;;;;;;;5059009;28;20422;-66
2021/03/09 01:21:07;;;;;;;0.20;0.20;;;;;;;;;;5061403;28;20209;-66
2021/03/09 01:23:34;;;;;;;0.30;0.30;;;;;;;;;;5060731;28;20199;-66
2021/03/09 01:26:00;;;;;;;0.20;0.20;;;;;;;;;;5057738;28;20506;-66
2021/03/09 01:28:26;;;;;;;0.30;0.30;;;;;;;;;;5065610;28;20210;-67
2021/03/09 01:30:52;;;;;;;0.27;0.27;;;;;;;;;;5082334;28;20272;-68
2021/03/09 01:33:19;;;;;;;0.30;0.30;;;;;;;;;;5061403;28;20325;-67
2021/03/09 01:35:45;;;;;;;0.20;0.20;;;;;;;;;;5055836;28;20200;-67
2021/03/09 01:38:11;;;;;;;0.30;0.30;;;;;;;;;;5065163;28;20207;-67
2021/03/09 01:40:38;;;;;;;0.27;0.27;;;;;;;;;;5082931;28;20213;-67
2021/03/09 01:43:05;;;;;;;0.30;0.30;;;;;;;;;;5064626;28;20204;-66
2021/03/09 01:45:32;;;;;;;0.30;0.30;;;;;;;;;;5061094;28;20219;-68
2021/03/09 01:48:00;;;;;;;0.30;0.30;;;;;;;;;;5063017;28;20208;-68
2021/03/09 01:50:26;;;;;;;0.30;0.30;;;;;;;;;;5083521;28;20203;-67
2021/03/09 01:52:53;;;;;;;0.30;0.30;;;;;;;;;;5084456;28;20195;-68
2021/03/09 01:55:19;;;;;;;0.30;0.30;;;;;;;;;;5082557;28;20218;-66
2021/03/09 01:57:46;;;;;;;0.20;0.20;;;;;;;;;;5064377;28;20207;-66
2021/03/09 02:00:13;;;;;;;0.30;0.30;;;;;;;;;;5061289;28;20199;-67
2021/03/09 02:02:40;;;;;;;0.20;0.20;;;;;;;;;;5083259;28;20195;-66
2021/03/09 02:05:07;;;;;;;0.20;0.20;;;;;;;;;;5081597;28;20268;-67
2021/03/09 02:07:33;;;;;;;0.30;0.30;;;;;;;;;;5062920;28;20480;-67
2021/03/09 02:09:59;;;;;;;0.30;0.30;;;;;;;;;;5083068;28;20195;-68
2021/03/09 02:12:31;;;;;;;0.30;0.30;;;;;;;;;;5062938;28;20534;-67
2021/03/09 02:15:02;;;;;;;0.30;0.30;;;;;;;;;;5078948;28;20245;-68
2021/03/09 02:17:30;;;;;;;0.27;0.27;;;;;;;;;;5082780;28;20231;-66
2021/03/09 02:20:08;;;;;;;0.30;0.30;;;;;;;;;;5074204;28;20204;-67
2021/03/09 02:22:55;;;;;;;0.30;0.30;;;;;;;;;;5086050;28;20419;-67
2021/03/09 02:25:32;;;;;;;0.30;0.30;;;;;;;;;;5083891;28;20195;-68
2021/03/09 02:28:10;;;;;;;0.30;0.30;;;;;;;;;;5078826;28;20199;-68
2021/03/09 02:30:37;;;;;;;0.30;0.30;;;;;;;;;;5082698;28;20253;-66
2021/03/09 02:33:06;;;;;;;0.30;0.30;;;;;;;;;;5083174;28;20199;-66
2021/03/09 02:35:34;;;;;;;0.20;0.20;;;;;;;;;;5084832;28;20203;-66
2021/03/09 02:38:02;;;;;;;0.20;0.20;;;;;;;;;;5083140;28;20203;-67
2021/03/09 02:40:29;;;;;;;0.30;0.30;;;;;;;;;;5063692;28;20211;-68
2021/03/09 02:42:58;;;;;;;0.30;0.30;;;;;;;;;;5063648;28;20191;-67
2021/03/09 02:45:25;;;;;;;0.30;0.30;;;;;;;;;;5083003;28;20202;-66
2021/03/09 02:47:52;;;;;;;0.30;0.30;;;;;;;;;;5064259;28;20199;-67
2021/03/09 02:50:22;;;;;;;0.30;0.30;;;;;;;;;;5083352;28;20230;-66
2021/03/09 02:52:49;;;;;;;0.30;0.30;;;;;;;;;;5082021;28;20219;-67
2021/03/09 02:55:16;;;;;;;0.30;0.30;;;;;;;;;;5085318;28;20479;-66
2021/03/09 02:57:43;;;;;;;0.20;0.20;;;;;;;;;;5075939;28;20226;-67
2021/03/09 03:00:09;;;;;;;0.30;0.30;;;;;;;;;;5054551;28;20204;-66
2021/03/09 03:02:36;;;;;;;0.30;0.30;;;;;;;;;;5077100;28;20211;-68
2021/03/09 03:05:04;;;;;;;0.30;0.30;;;;;;;;;;5084949;28;20223;-69
2021/03/09 03:07:30;;;;;;;0.30;0.30;;;;;;;;;;5055582;28;20207;-67
2021/03/09 03:09:57;;;;;;;0.30;0.30;;;;;;;;;;5083665;28;20451;-68
2021/03/09 03:12:23;;;;;;;0.30;0.30;;;;;;;;;;5064656;28;20417;-68
2021/03/09 03:14:49;;;;;;;0.23;0.23;;;;;;;;;;5081186;28;20491;-67
2021/03/09 03:17:16;;;;;;;0.30;0.30;;;;;;;;;;5065072;28;20245;-67
2021/03/09 03:19:42;;;;;;;0.30;0.30;;;;;;;;;;5082421;28;20199;-67
2021/03/09 03:22:10;;;;;;;0.30;0.30;;;;;;;;;;5081249;28;20192;-67
2021/03/09 03:24:37;;;;;;;0.23;0.23;;;;;;;;;;5079395;28;20210;-67
2021/03/09 03:27:03;;;;;;;0.30;0.30;;;;;;;;;;5081970;28;20349;-66
2021/03/09 03:29:29;;;;;;;0.20;0.20;;;;;;;;;;5099072;28;20511;-66
2021/03/09 03:31:56;;;;;;;0.30;0.30;;;;;;;;;;5074709;28;20381;-68
2021/03/09 03:34:22;;;;;;;0.30;0.30;;;;;;;;;;5061551;28;20246;-67
2021/03/09 03:36:48;;;;;;;0.27;0.27;;;;;;;;;;5062023;28;20199;-66
2021/03/09 03:39:15;;;;;;;0.30;0.30;;;;;;;;;;5061065;28;20196;-67
2021/03/09 03:41:42;;;;;;;0.30;0.30;;;;;;;;;;5080368;28;20209;-67
2021/03/09 03:44:08;;;;;;;0.30;0.30;;;;;;;;;;5064038;28;20203;-67
2021/03/09 03:46:34;;;;;;;1.03;1.00;;;;;;;;;;5059531;28;20207;-67
2021/03/09 03:49:01;;;;;;;0.30;0.30;;;;;;;;;;5059036;28;20210;-66
2021/03/09 03:51:29;;;;;;;0.30;0.30;;;;;;;;;;5078825;28;20306;-67
2021/03/09 03:53:59;;;;;;;0.30;0.30;;;;;;;;;;5078551;28;20324;-67
2021/03/09 03:56:32;;;;;;;0.30;0.30;;;;;;;;;;5071013;28;20207;-68
2021/03/09 03:59:01;;;;;;;0.30;0.30;;;;;;;;;;5080562;28;20203;-68
2021/03/09 04:01:28;;;;;;;0.30;0.30;;;;;;;;;;5080897;28;20222;-67
2021/03/09 04:03:56;;;;;;;0.30;0.30;;;;;;;;;;5063448;28;20448;-67
2021/03/09 04:06:23;;;;;;;0.20;0.20;;;;;;;;;;5061814;28;20199;-67
2021/03/09 04:08:49;;;;;;;0.30;0.30;;;;;;;;;;5074755;28;20537;-68
2021/03/09 04:11:16;;;;;;;0.30;0.30;;;;;;;;;;5062250;28;20264;-68
2021/03/09 04:13:44;;;;;;;0.30;0.30;;;;;;;;;;5060803;28;20198;-68
2021/03/09 04:16:11;;;;;;;0.30;0.30;;;;;;;;;;5055632;28;20290;-68
2021/03/09 04:18:39;;;;;;;0.30;0.30;;;;;;;;;;5064013;28;20203;-68
2021/03/09 04:21:05;;;;;;;0.30;0.30;;;;;;;;;;5080717;28;20191;-67
2021/03/09 04:23:32;;;;;;;0.30;0.30;;;;;;;;;;5081878;28;20200;-67
2021/03/09 04:26:00;;;;;;;0.27;0.27;;;;;;;;;;5059106;28;20196;-67
2021/03/09 04:28:26;;;;;;;0.30;0.30;;;;;;;;;;5059402;28;20206;-67
2021/03/09 04:30:53;;;;;;;0.30;0.30;;;;;;;;;;5062270;28;20199;-67
2021/03/09 04:33:20;;;;;;;0.30;0.30;;;;;;;;;;5080772;28;20494;-67
2021/03/09 04:35:46;;;;;;;0.30;0.30;;;;;;;;;;5059876;28;20240;-67
2021/03/09 04:38:12;;;;;;;0.30;0.30;;;;;;;;;;5080922;28;20206;-67
2021/03/09 04:40:39;;;;;;;0.30;0.30;;;;;;;;;;5079548;28;20198;-68
2021/03/09 04:43:05;;;;;;;0.30;0.30;;;;;;;;;;5059394;28;20210;-67
2021/03/09 04:45:32;;;;;;;0.30;0.30;;;;;;;;;;5054614;28;20209;-67
2021/03/09 04:48:00;;;;;;;0.30;0.30;;;;;;;;;;5062024;28;20199;-67
2021/03/09 04:50:27;;;;;;;0.30;0.30;;;;;;;;;;5079159;28;20207;-67
2021/03/09 04:52:53;;;;;;;0.60;0.60;;;;;;;;;;5060278;28;20219;-67
2021/03/09 04:55:20;;;;;;;0.40;0.40;;;;;;;;;;5053459;28;20207;-67
2021/03/09 04:57:46;;;;;;;0.30;0.30;;;;;;;;;;5080972;28;20251;-67
2021/03/09 05:00:14;;;;;;;0.30;0.30;;;;;;;;;;5058609;28;20203;-67
2021/03/09 05:02:40;;;;;;;0.30;0.30;;;;;;;;;;5081482;28;20206;-67
2021/03/09 05:05:08;;;;;;;0.30;0.30;;;;;;;;;;5078792;28;20608;-68
2021/03/09 05:07:35;;;;;;;0.40;0.40;;;;;;;;;;5060268;28;20211;-67
2021/03/09 05:10:01;;;;;;;0.30;0.30;;;;;;;;;;5062592;28;20205;-67
2021/03/09 05:12:27;;;;;;;0.30;0.30;;;;;;;;;;5058172;28;20284;-68
2021/03/09 05:14:54;;;;;;;0.30;0.30;;;;;;;;;;5057423;28;20199;-67
2021/03/09 05:17:20;;;;;;;0.30;0.30;;;;;;;;;;5059545;28;20265;-67
2021/03/09 05:19:46;;;;;;;0.30;0.30;;;;;;;;;;5074155;28;20431;-67
2021/03/09 05:22:13;;;;;;;0.30;0.30;;;;;;;;;;5075318;28;20195;-67
2021/03/09 05:24:39;;;;;;;0.30;0.30;;;;;;;;;;5057714;28;20494;-67
2021/03/09 05:27:05;;;;;;;0.30;0.30;;;;;;;;;;5080326;28;20225;-66
2021/03/09 05:29:31;;;;;;;0.30;0.30;;;;;;;;;;5059905;28;20245;-68
2021/03/09 05:31:58;;;;;;;0.30;0.30;;;;;;;;;;5080662;28;20280;-68
2021/03/09 05:34:24;;;;;;;0.30;0.30;;;;;;;;;;5058936;28;20207;-67
2021/03/09 05:36:50;;;;;;;0.30;0.30;;;;;;;;;;5081620;28;20199;-68
2021/03/09 05:39:17;;;;;;;0.30;0.30;;;;;;;;;;5080588;28;20398;-68
2021/03/09 05:41:44;;;;;;;0.30;0.30;;;;;;;;;;5061118;28;20244;-68
2021/03/09 05:44:10;;;;;;;0.30;0.30;;;;;;;;;;5062792;28;20237;-67
2021/03/09 05:46:36;;;;;;;0.30;0.30;;;;;;;;;;5070892;28;20343;-68
2021/03/09 05:49:03;;;;;;;0.30;0.30;;;;;;;;;;5057973;28;20214;-68
2021/03/09 05:51:30;;;;;;;0.30;0.30;;;;;;;;;;5054030;28;20258;-68
2021/03/09 05:53:56;;;;;;;0.30;0.30;;;;;;;;;;5074882;28;20199;-68
2021/03/09 05:56:23;;;;;;;0.30;0.30;;;;;;;;;;5061785;28;20207;-66
2021/03/09 05:58:49;;;;;;;0.30;0.30;;;;;;;;;;5081343;28;20203;-66
2021/03/09 06:01:15;;;;;;;0.30;0.30;;;;;;;;;;5059203;28;20192;-66
2021/03/09 06:03:41;;;;;;;0.30;0.30;;;;;;;;;;5076296;28;20199;-66
2021/03/09 06:06:08;;;;;;;0.30;0.30;;;;;;;;;;5062677;28;20222;-67
2021/03/09 06:08:34;;;;;;;0.30;0.30;;;;;;;;;;5058039;28;20252;-67
2021/03/09 06:11:15;;;;;;;0.30;0.30;;;;;;;;;;5053036;28;20203;-68
2021/03/09 06:13:43;;;;;;;0.30;0.30;;;;;;;;;;5078049;28;20195;-68
2021/03/09 06:16:09;;;;;;;0.30;0.30;;;;;;;;;;5083229;28;20214;-69
2021/03/09 06:18:35;;;;;;;0.30;0.30;;;;;;;;;;5082064;28;20229;-66
2021/03/09 06:21:12;;;;;;;0.30;0.30;;;;;;;;;;5063784;28;20221;-68
2021/03/09 06:23:38;;;;;;;0.30;0.30;;;;;;;;;;5064485;28;20203;-67
2021/03/09 06:26:04;;;;;;;0.30;0.30;;;;;;;;;;5082790;28;20195;-66
2021/03/09 06:28:31;;;;;;;0.30;0.30;;;;;;;;;;5060920;28;20227;-66
2021/03/09 06:31:00;;;;;;;0.30;0.30;;;;;;;;;;5064616;28;20195;-67
2021/03/09 06:33:27;;;;;;;0.30;0.30;;;;;;;;;;5077316;28;20205;-67
2021/03/09 06:35:54;;;;;;;0.30;0.30;;;;;;;;;;5061192;28;20237;-67
2021/03/09 06:38:21;;;;;;;0.30;0.30;;;;;;;;;;5064947;28;20218;-66
2021/03/09 06:41:02;;;;;;;0.30;0.30;;;;;;;;;;5082499;28;20222;-66
2021/03/09 06:43:29;;;;;;;0.30;0.30;;;;;;;;;;5080191;28;20206;-67
2021/03/09 06:46:09;;;;;;;0.30;0.30;;;;;;;;;;5065970;28;20228;-67
2021/03/09 06:48:37;;;;;;;0.30;0.30;;;;;;;;;;5083305;28;20210;-67
2021/03/09 06:51:04;;;;;;;0.30;0.30;;;;;;;;;;5082558;28;20203;-67
2021/03/09 06:53:31;;;;;;;0.30;0.30;;;;;;;;;;5081861;28;20200;-67
2021/03/09 06:55:57;;;;;;;0.40;0.40;;;;;;;;;;5081193;28;20206;-67
2021/03/09 06:58:28;;;;;;;0.30;0.30;;;;;;;;;;5082269;28;20427;-67
2021/03/09 07:00:54;;;;;;;0.40;0.40;;;;;;;;;;5061069;28;20305;-69
2021/03/09 07:03:34;;;;;;;0.30;0.30;;;;;;;;;;5078677;28;20203;-67
2021/03/09 07:06:01;;;;;;;0.30;0.30;;;;;;;;;;5058203;28;20196;-68
2021/03/09 07:08:27;;;;;;;0.30;0.30;;;;;;;;;;5076530;28;20230;-67
2021/03/09 07:10:53;;;;;;;0.30;0.30;;;;;;;;;;5056256;28;20219;-68
2021/03/09 07:13:21;;;;;;;0.30;0.30;;;;;;;;;;5056349;28;20247;-69
2021/03/09 07:15:48;;;;;;;0.30;0.30;;;;;;;;;;5074542;28;20199;-70
2021/03/09 07:18:15;;;;;;;0.30;0.30;;;;;;;;;;5077102;28;20400;-69
2021/03/09 07:20:43;;;;;;;0.30;0.30;;;;;;;;;;5079372;28;20205;-71
2021/03/09 07:23:09;;;;;;;0.30;0.30;;;;;;;;;;5062535;28;20203;-70
2021/03/09 07:25:36;;;;;;;0.20;0.20;;;;;;;;;;5081841;28;20929;-69
2021/03/09 07:28:03;;;;;;;0.20;0.20;;;;;;;;;;5076791;28;20203;-70
2021/03/09 07:30:32;;;;;;;0.30;0.30;;;;;;;;;;5082484;28;20195;-70
2021/03/09 07:32:58;;;;;;;0.23;0.23;;;;;;;;;;5060044;28;20322;-70
2021/03/09 07:35:27;;;;;;;0.30;0.30;;;;;;;;;;5071767;28;20199;-71
2021/03/09 07:37:55;;;;;;;0.20;0.20;;;;;;;;;;5067529;28;20240;-70
2021/03/09 07:40:21;;;;;;;0.30;0.30;;;;;;;;;;5071576;28;20205;-70
2021/03/09 07:42:48;;;;;;;0.20;0.20;;;;;;;;;;5081411;28;20195;-71
2021/03/09 07:45:15;;;;;;;0.20;0.20;;;;;;;;;;5063185;28;20206;-70
2021/03/09 07:47:43;;;;;;;0.23;0.23;;;;;;;;;;5081464;28;20241;-70
2021/03/09 07:50:11;;;;;;;0.30;0.30;;;;;;;;;;5081773;28;20245;-71
2021/03/09 07:52:38;;;;;;;0.20;0.20;;;;;;;;;;5081027;28;20347;-72
2021/03/09 07:55:18;;;;;;;0.20;0.20;;;;;;;;;;5081913;28;20195;-70
2021/03/09 07:57:44;;;;;;;0.20;0.20;;;;;;;;;;5072363;28;20391;-71
2021/03/09 08:00:12;;;;;;;0.27;0.27;;;;;;;;;;5078432;28;20391;-70
2021/03/09 08:02:42;;;;;;;0.20;0.20;;;;;;;;;;5057820;28;20203;-70
2021/03/09 08:05:09;;;;;;;0.20;0.20;;;;;;;;;;5075399;28;20228;-70
2021/03/09 08:07:45;;;;;;;0.20;0.20;;;;;;;;;;5076919;28;20207;-71
2021/03/09 08:10:34;;;;;;;0.20;0.20;;;;;;;;;;5081687;28;20426;-69
2021/03/09 08:13:16;;;;;;;0.10;0.10;;;;;;;;;;5082703;28;20224;-68
2021/03/09 08:15:42;;;;;;;0.20;0.20;;;;;;;;;;5073622;28;20269;-70
2021/03/09 08:18:24;;;;;;;0.20;0.20;;;;;;;;;;5059521;28;20360;-69
2021/03/09 08:20:51;;;;;;;0.20;0.20;;;;;;;;;;5084638;28;20243;-69
2021/03/09 08:23:32;;;;;;;0.20;0.20;;;;;;;;;;5075197;28;20201;-68
2021/03/09 08:26:01;;;;;;;0.20;0.20;;;;;;;;;;5079304;28;20198;-70
2021/03/09 08:28:30;;;;;;;0.10;0.10;;;;;;;;;;5063051;28;20239;-69
2021/03/09 08:31:22;;;;;;;0.30;0.30;;;;;;;;;;5068873;28;20274;-71
2021/03/09 08:33:48;;;;;;;0.20;0.20;;;;;;;;;;5079551;28;20202;-70
2021/03/09 08:36:32;;;;;;;0.10;0.10;;;;;;;;;;5074266;28;20228;-70
2021/03/09 08:39:15;;;;;;;0.17;0.17;;;;;;;;;;5077222;28;20202;-69
2021/03/09 08:42:05;;;;;;;0.17;0.17;;;;;;;;;;5056990;28;20205;-71
2021/03/09 08:44:32;;;;;;;7.70;7.30;;;;;;;;;;5050805;28;20201;-69
2021/03/09 08:47:02;;;;;;;0.10;0.10;;;;;;;;;;5067728;28;20387;-70
2021/03/09 08:49:45;;;;;;;0.10;0.10;;;;;;;;;;5080113;28;20226;-70
2021/03/09 08:52:12;;;;;;;0.10;0.10;;;;;;;;;;5057926;28;20222;-69
2021/03/09 08:54:39;;;;;;;0.10;0.10;;;;;;;;;;5072000;28;20224;-69
2021/03/09 08:57:10;;;;;;;0.10;0.10;;;;;;;;;;5081794;28;20198;-70
2021/03/09 08:59:38;;;;;;;0.10;0.10;;;;;;;;;;5080886;28;20199;-70
2021/03/09 09:02:09;;;;;;;0.17;0.17;;;;;;;;;;5082788;28;20201;-71
2021/03/09 09:04:36;;;;;;;0.10;0.10;;;;;;;;;;5079613;28;20251;-69
2021/03/09 09:07:16;;;;;;;0.10;0.10;;;;;;;;;;5075073;28;20199;-71
2021/03/09 09:09:42;;;;;;;0.10;0.10;;;;;;;;;;5074069;28;20202;-70
2021/03/09 09:12:19;;;;;;;0.10;0.10;;;;;;;;;;5068348;28;20268;-70
2021/03/09 09:14:46;;;;;;;0.10;0.10;;;;;;;;;;5083412;28;20204;-70
2021/03/09 09:17:13;;;;;;;0.10;0.10;;;;;;;;;;5078533;28;20504;-69
2021/03/09 09:19:39;;;;;;;0.10;0.10;;;;;;;;;;5059626;28;20201;-71
2021/03/09 09:22:07;;;;;;;0.10;0.10;;;;;;;;;;5068399;28;20265;-69
2021/03/09 09:24:33;;;;;;;4.20;3.83;;;;;;;;;;5080021;28;20469;-69
2021/03/09 09:27:01;;;;;;;0.10;0.10;;;;;;;;;;5080686;28;20240;-69
2021/03/09 09:29:28;;;;;;;0.10;0.10;;;;;;;;;;5079805;28;20494;-69
2021/03/09 09:32:01;;;;;;;1.33;1.33;;;;;;;;;;5074835;28;20444;-69
2021/03/09 09:34:37;;;;;;;0.10;0.10;;;;;;;;;;5063516;28;20205;-69
2021/03/09 09:37:11;;;;;;;0.10;0.10;;;;;;;;;;5081151;28;20240;-68
2021/03/09 09:39:37;;;;;;;0.13;0.13;;;;;;;;;;5078169;28;20273;-69
2021/03/09 09:42:04;;;;;;;0.10;0.10;;;;;;;;;;5059429;28;20199;-68
2021/03/09 09:44:31;;;;;;;0.10;0.10;;;;;;;;;;5054437;28;20206;-70
2021/03/09 09:46:57;;;;;;;0.10;0.10;;;;;;;;;;5079806;28;20496;-70
2021/03/09 09:49:25;;;;;;;0.10;0.10;;;;;;;;;;5064865;28;20214;-69
2021/03/09 09:51:51;;;;;;;0.10;0.10;;;;;;;;;;5066052;28;20225;-69
2021/03/09 09:54:18;;;;;;;0.10;0.10;;;;;;;;;;5066338;28;20269;-71
2021/03/09 09:56:44;;;;;;;0.10;0.10;;;;;;;;;;5057130;28;20223;-70
2021/03/09 09:59:24;;;;;;;0.10;0.10;;;;;;;;;;5065707;28;20207;-70
2021/03/09 10:01:50;;;;;;;0.10;0.10;;;;;;;;;;5083660;28;20273;-69
2021/03/09 10:04:17;;;;;;;0.10;0.10;;;;;;;;;;5077337;28;20241;-69
2021/03/09 10:06:45;;;;;;;0.10;0.10;;;;;;;;;;5065640;28;20229;-69
2021/03/09 10:09:15;;;;;;;0.30;0.30;;;;;;;;;;5077834;28;20249;-71
2021/03/09 10:11:45;;;;;;;0.10;0.10;;;;;;;;;;5081758;28;20602;-70
2021/03/09 10:14:12;;;;;;;0.10;0.10;;;;;;;;;;5080445;28;20283;-71
2021/03/09 10:16:39;;;;;;;0.40;0.40;;;;;;;;;;5052153;28;20498;-69
2021/03/09 10:19:06;;;;;;;0.10;0.10;;;;;;;;;;5082738;28;20380;-72
2021/03/09 10:21:33;;;;;;;0.07;0.07;;;;;;;;;;5062022;28;20303;-70
2021/03/09 10:24:02;;;;;;;0.10;0.10;;;;;;;;;;5081352;28;20275;-70
2021/03/09 10:26:30;;;;;;;0.10;0.10;;;;;;;;;;5060881;28;20209;-70
2021/03/09 10:29:01;;;;;;;0.10;0.10;;;;;;;;;;5064660;28;20224;-72
2021/03/09 10:31:27;;;;;;;0.10;0.10;;;;;;;;;;5090653;28;20429;-71
2021/03/09 10:34:02;;;;;;;0.10;0.10;;;;;;;;;;5083138;28;20203;-71
2021/03/09 10:36:46;;;;;;;0.10;0.10;;;;;;;;;;5071386;28;20282;-69
2021/03/09 10:39:13;;;;;;;0.05;0.05;;;;;;;;;;5077788;28;20202;-69
2021/03/09 10:41:39;;;;;;;0.10;0.10;;;;;;;;;;5077083;28;20216;-69
2021/03/09 10:44:06;;;;;;;0.22;0.22;;;;;;;;;;5083076;28;20244;-71
2021/03/09 10:46:34;;;;;;;0.10;0.10;;;;;;;;;;5084063;28;20211;-74
2021/03/09 10:49:01;;;;;;;0.68;0.68;;;;;;;;;;5078317;28;20215;-72
2021/03/09 10:51:28;;;;;;;0.13;0.13;;;;;;;;;;5066548;28;20199;-71
2021/03/09 10:53:55;;;;;;;0.10;0.10;;;;;;;;;;5078847;28;20199;-70
2021/03/09 10:56:23;;;;;;;0.10;0.10;;;;;;;;;;5060592;28;20210;-71
2021/03/09 10:58:49;;;;;;;0.10;0.10;;;;;;;;;;5082737;28;20201;-70
2021/03/09 11:01:16;;;;;;;0.10;0.10;;;;;;;;;;5082249;28;20204;-70
2021/03/09 11:03:42;;;;;;;0.10;0.10;;;;;;;;;;5065498;28;20490;-70
2021/03/09 11:06:09;;;;;;;0.10;0.10;;;;;;;;;;5065399;28;20454;-70
2021/03/09 11:08:35;;;;;;;0.10;0.10;;;;;;;;;;5063689;28;20196;-69
2021/03/09 11:11:01;;;;;;;0.07;0.07;;;;;;;;;;5082705;28;20238;-70
2021/03/09 11:13:29;;;;;;;0.10;0.10;;;;;;;;;;5063018;28;20227;-71
2021/03/09 11:15:55;;;;;;;0.10;0.10;;;;;;;;;;5063596;28;20234;-70
2021/03/09 11:18:21;;;;;;;0.07;0.07;;;;;;;;;;5080123;28;20271;-69
2021/03/09 11:20:48;;;;;;;0.10;0.10;;;;;;;;;;5076755;28;20213;-69
2021/03/09 11:23:14;;;;;;;0.00;0.00;;;;;;;;;;5060706;28;20503;-70
2021/03/09 11:25:40;;;;;;;0.10;0.10;;;;;;;;;;5082521;28;20203;-70
2021/03/09 11:28:06;;;;;;;0.10;0.10;;;;;;;;;;5079849;28;20277;-70
2021/03/09 11:30:34;;;;;;;0.10;0.10;;;;;;;;;;5076151;28;20264;-71
2021/03/09 11:33:00;;;;;;;0.10;0.10;;;;;;;;;;5079626;28;20307;-70
2021/03/09 11:35:27;;;;;;;0.10;0.10;;;;;;;;;;5073858;28;20269;-70
2021/03/09 11:37:53;;;;;;;0.10;0.10;;;;;;;;;;5076402;28;20369;-69
2021/03/09 11:40:19;;;;;;;0.10;0.10;;;;;;;;;;5083030;28;20206;-72
2021/03/09 11:42:45;;;;;;;0.10;0.10;;;;;;;;;;5080517;28;20205;-71
2021/03/09 11:45:12;;;;;;;0.10;0.10;;;;;;;;;;5056132;28;20518;-70
2021/03/09 11:47:40;;;;;;;0.00;0.00;;;;;;;;;;5063147;28;20202;-69
2021/03/09 11:50:07;;;;;;;0.10;0.10;;;;;;;;;;5059327;28;20214;-69
2021/03/09 11:52:33;;;;;;;0.10;0.10;;;;;;;;;;5061193;28;20223;-69
2021/03/09 11:54:59;;;;;;;0.30;0.30;;;;;;;;;;5075028;28;20368;-69
2021/03/09 11:57:26;;;;;;;0.10;0.10;;;;;;;;;;5080665;28;20206;-70
2021/03/09 11:59:52;;;;;;;0.10;0.10;;;;;;;;;;5079931;28;20210;-70
2021/03/09 12:02:19;;;;;;;0.10;0.10;;;;;;;;;;5058015;28;20414;-69
2021/03/09 12:04:46;;;;;;;0.10;0.10;;;;;;;;;;5062044;28;20233;-69
2021/03/09 12:07:13;;;;;;;0.10;0.10;;;;;;;;;;5062422;28;20199;-70
2021/03/09 12:09:39;;;;;;;0.10;0.10;;;;;;;;;;5061304;28;20208;-69
2021/03/09 12:12:06;;;;;;;0.10;0.10;;;;;;;;;;5059206;28;20215;-70
2021/03/09 12:14:32;;;;;;;0.10;0.10;;;;;;;;;;5062442;28;20215;-69
2021/03/09 12:16:59;;;;;;;0.10;0.10;;;;;;;;;;5078046;28;20204;-69
2021/03/09 12:19:25;;;;;;;0.10;0.10;;;;;;;;;;5062719;28;20277;-70
2021/03/09 12:21:52;;;;;;;0.10;0.10;;;;;;;;;;5061976;28;20268;-70
2021/03/09 12:24:19;;;;;;;0.10;0.10;;;;;;;;;;5082578;28;20231;-70
2021/03/09 12:26:46;;;;;;;0.13;0.13;;;;;;;;;;5077743;28;20508;-72
2021/03/09 12:29:12;;;;;;;0.10;0.10;;;;;;;;;;5069236;28;20208;-72
2021/03/09 12:31:39;;;;;;;0.10;0.10;;;;;;;;;;5078833;28;20421;-68
2021/03/09 12:34:05;;;;;;;0.10;0.10;;;;;;;;;;5078848;28;20201;-70
2021/03/09 12:36:31;;;;;;;0.10;0.10;;;;;;;;;;5059444;28;20609;-70
2021/03/09 12:38:59;;;;;;;0.10;0.10;;;;;;;;;;5078892;28;20202;-69
2021/03/09 12:41:25;;;;;;;0.10;0.10;;;;;;;;;;5079852;28;20276;-69
2021/03/09 12:43:51;;;;;;;0.10;0.10;;;;;;;;;;5080298;28;20288;-69
2021/03/09 12:46:18;;;;;;;0.10;0.10;;;;;;;;;;5049077;28;20244;-70
2021/03/09 12:48:44;;;;;;;0.10;0.10;;;;;;;;;;5062309;28;20617;-70
2021/03/09 12:51:11;;;;;;;0.10;0.10;;;;;;;;;;5078814;28;20491;-68
2021/03/09 12:53:37;;;;;;;0.10;0.10;;;;;;;;;;5096459;28;20280;-71
2021/03/09 12:56:05;;;;;;;0.10;0.10;;;;;;;;;;5063135;28;20217;-69
2021/03/09 12:58:34;;;;;;;0.10;0.10;;;;;;;;;;5063198;28;20223;-70
2021/03/09 13:01:00;;;;;;;0.10;0.10;;;;;;;;;;5083011;28;20218;-70
2021/03/09 13:03:26;;;;;;;0.10;0.10;;;;;;;;;;5062839;28;20195;-71
2021/03/09 13:05:53;;;;;;;0.17;0.17;;;;;;;;;;5061885;28;20208;-68
2021/03/09 13:08:19;;;;;;;0.10;0.10;;;;;;;;;;5069230;28;20209;-69
2021/03/09 13:10:46;;;;;;;0.10;0.10;;;;;;;;;;5051209;28;20239;-69
2021/03/09 13:13:13;;;;;;;0.10;0.10;;;;;;;;;;5051219;28;20500;-71
2021/03/09 13:15:39;;;;;;;0.10;0.10;;;;;;;;;;5059832;28;20208;-70
2021/03/09 13:18:07;;;;;;;0.10;0.10;;;;;;;;;;5061504;28;20397;-71
2021/03/09 13:20:33;;;;;;;0.10;0.10;;;;;;;;;;5081031;28;20221;-69
2021/03/09 13:22:59;;;;;;;0.20;0.20;;;;;;;;;;5060419;28;20211;-69
2021/03/09 13:25:26;;;;;;;0.10;0.10;;;;;;;;;;5085229;28;20245;-70
2021/03/09 13:27:52;;;;;;;0.10;0.10;;;;;;;;;;5066932;28;20244;-70
2021/03/09 13:30:20;;;;;;;0.10;0.10;;;;;;;;;;5083963;28;20204;-70
2021/03/09 13:32:46;;;;;;;0.10;0.10;;;;;;;;;;5083245;28;20219;-70
2021/03/09 13:35:13;;;;;;;0.10;0.10;;;;;;;;;;5086856;28;20260;-70
2021/03/09 13:37:39;;;;;;;0.10;0.10;;;;;;;;;;5078152;28;20390;-71
2021/03/09 13:40:06;;;;;;;0.10;0.10;;;;;;;;;;5083151;28;20203;-68
2021/03/09 13:42:33;;;;;;;0.10;0.10;;;;;;;;;;5066417;28;20200;-69
2021/03/09 13:45:00;;;;;;;0.10;0.10;;;;;;;;;;5062758;28;20236;-68
2021/03/09 13:47:27;;;;;;;0.10;0.10;;;;;;;;;;5064591;28;20271;-71
2021/03/09 13:49:53;;;;;;;0.10;0.10;;;;;;;;;;5065714;28;20309;-69
2021/03/09 13:52:20;;;;;;;0.10;0.10;;;;;;;;;;5061136;28;20221;-70
2021/03/09 13:54:46;;;;;;;0.10;0.10;;;;;;;;;;5067033;28;20223;-69
2021/03/09 13:57:12;;;;;;;0.27;0.27;;;;;;;;;;5064994;28;20211;-69
2021/03/09 13:59:39;;;;;;;0.77;0.77;;;;;;;;;;5082140;28;20466;-69
2021/03/09 14:02:05;;;;;;;0.10;0.10;;;;;;;;;;5064960;28;20279;-68
2021/03/09 14:04:33;;;;;;;0.10;0.10;;;;;;;;;;5065994;28;20259;-69
2021/03/09 14:06:59;;;;;;;0.10;0.10;;;;;;;;;;5082027;28;20209;-71
2021/03/09 14:09:26;;;;;;;0.10;0.10;;;;;;;;;;5078583;28;20199;-70
2021/03/09 14:11:53;;;;;;;0.10;0.10;;;;;;;;;;5082199;28;20488;-70
2021/03/09 14:14:19;;;;;;;0.10;0.10;;;;;;;;;;5062172;28;20252;-71
2021/03/09 14:16:45;;;;;;;0.10;0.10;;;;;;;;;;5080492;28;20201;-74
2021/03/09 14:19:12;;;;;;;0.20;0.20;;;;;;;;;;5080802;28;20249;-72
2021/03/09 14:21:40;;;;;;;0.10;0.10;;;;;;;;;;5083617;28;20199;-73
2021/03/09 14:24:07;;;;;;;0.10;0.10;;;;;;;;;;5062880;28;20397;-72
2021/03/09 14:26:34;;;;;;;0.10;0.10;;;;;;;;;;5083119;28;20200;-71
2021/03/09 14:29:01;;;;;;;1.60;1.60;;;;;;;;;;5062583;28;20231;-72
2021/03/09 14:31:27;;;;;;;0.10;0.10;;;;;;;;;;5075770;28;20251;-70
2021/03/09 14:33:54;;;;;;;0.10;0.10;;;;;;;;;;5082372;28;20217;-70
2021/03/09 14:36:20;;;;;;;0.10;0.10;;;;;;;;;;5073283;28;20207;-71
2021/03/09 14:38:47;;;;;;;0.10;0.10;;;;;;;;;;5075052;28;20231;-72
2021/03/09 14:41:14;;;;;;;0.10;0.10;;;;;;;;;;5060749;28;20511;-71
2021/03/09 14:43:40;;;;;;;0.10;0.10;;;;;;;;;;5060535;28;20202;-73
2021/03/09 14:46:06;;;;;;;0.10;0.10;;;;;;;;;;5085715;28;20286;-72